Ruthville, VA (23147)

7:05 PM EST on November 28, 2014 (GMT -0500)
RAWS JAMES RIVER VA US | Change Station
CLOSE
Current Station
Personal Weather Station
Location: Spring Grove, VA
Elevation: 49 ft
Nearby Weather Stations

Elev 49 ft 37.26 °N, 77.14 °W | Updated 39 minutes ago

Partly Cloudy
Partly Cloudy
31 °F
Feels Like 31 °F
N
0
Wind Variable Wind from North
Gusts 0.0 mph

Today
High -- | Low -- °F
--% Chance of Precip.
Yesterday
High -- | Low -- °F
Precip. -- in
7:00 AM 4:51 PM
Waxing Crescent, 45% visible
Pressure 30.31 in
Visibility 10.0 miles
Clouds Few 19000 ft
Scattered Clouds 30000 ft
Windchill 31 °F
Dew Point 27 °F
Humidity 85%
Rainfall 0.03 in
Snow Depth Not available.
UV 0 out of 12
Pollen .10 out of 12
Air Quality Not available.
Flu Activity Not available.
METAR KRIC 282354Z 00000KT 10SM FEW190 SCT300 01/M05 A3029 RMK AO2 SLP263 T00061050 10067 20000 50001

More Conditions Fewer Conditions

Pressure 30.31 in
Visibility 10.0 miles
Clouds Few 19000 ft
Scattered Clouds 30000 ft
Windchill 31 °F
Dew Point 27 °F
Humidity 85%
Rainfall 0.03 in
Snow Depth Not available.
UV 0 out of 12
Pollen .10 out of 12
Air Quality Not available.
Flu Activity Not available.
METAR KRIC 282354Z 00000KT 10SM FEW190 SCT300 01/M05 A3029 RMK AO2 SLP263 T00061050 10067 20000 50001

More Conditions Fewer Conditions

10-Day Weather Forecast

Almanac

Astronomy

Nov. 28, 2014 Rise Set
Actual Time
Civil Twilight
Nautical Twilight
Astronomical Twilight
Moon
Length of Visible Light
Length of Day
Tomorrow will be .
, % of the Moon is Illuminated

Today's Extremes

State Highs State Lows

Community

WunderPhotos

Upload Photos

1,774,342 photos uploaded!

WunderBlogs® & News

Nearby

Air Quality

  Air Quality AQ Index Pollutant
Not available.

Snow Depth

Station Depth Elevation

Earthquake Activity

City Distance Mag. Time & Date
Minimum magnitude displayed is 2.5.

Coastal Water Temperatures

Place Temperature

Nearby Weather Stations